Time;durP1;ratioP1;P1;durP2;ratioP2;P2;SDS_P1;SDS_P2;PMS_P1;PMS_P2;Temp;Humidity;BMP_temperature;BMP_pressure;BME280_temperature;BME280_humidity;BME280_pressure;Samples;Min_cycle;Max_cycle;Signal;HPM_P1;HPM_P2
2021/10/27 00:02:26;;;;;;;1.53;1.43;;;;;;;;;;5029103;28;20191;-66
2021/10/27 00:04:59;;;;;;;1.50;1.40;;;;;;;;;;5040919;28;20190;-66
2021/10/27 00:07:27;;;;;;;2.03;1.50;;;;;;;;;;5030242;28;20628;-66
2021/10/27 00:09:57;;;;;;;2.43;1.40;;;;;;;;;;5035151;28;20607;-67
2021/10/27 00:12:29;;;;;;;1.40;1.30;;;;;;;;;;5014558;28;20206;-67
2021/10/27 00:14:58;;;;;;;1.53;1.40;;;;;;;;;;5035485;28;20614;-67
2021/10/27 00:17:27;;;;;;;1.87;1.30;;;;;;;;;;5026506;28;20532;-66
2021/10/27 00:19:55;;;;;;;1.60;1.50;;;;;;;;;;5035613;28;20582;-66
2021/10/27 00:22:24;;;;;;;1.70;1.30;;;;;;;;;;5023949;28;20211;-66
2021/10/27 00:24:58;;;;;;;1.30;1.20;;;;;;;;;;5024694;28;20199;-66
2021/10/27 00:27:30;;;;;;;1.30;1.20;;;;;;;;;;5044941;28;20218;-66
2021/10/27 00:30:00;;;;;;;1.53;1.30;;;;;;;;;;5007190;28;20198;-66
2021/10/27 00:32:30;;;;;;;3.00;1.70;;;;;;;;;;5044329;28;20214;-66
2021/10/27 00:35:02;;;;;;;1.57;1.47;;;;;;;;;;5042768;28;20210;-66
2021/10/27 00:37:31;;;;;;;1.37;1.27;;;;;;;;;;5041760;28;20209;-67
2021/10/27 00:40:02;;;;;;;1.70;1.60;;;;;;;;;;5040381;28;20207;-66
2021/10/27 00:42:31;;;;;;;1.40;1.30;;;;;;;;;;5029098;28;20233;-66
2021/10/27 00:45:02;;;;;;;1.30;1.20;;;;;;;;;;5019180;28;20787;-66
2021/10/27 00:47:38;;;;;;;2.20;1.30;;;;;;;;;;5038078;28;20658;-67
2021/10/27 00:50:13;;;;;;;1.50;1.40;;;;;;;;;;5045476;28;20213;-66
2021/10/27 00:52:46;;;;;;;1.50;1.10;;;;;;;;;;5046051;28;20256;-66
2021/10/27 00:55:23;;;;;;;1.37;1.27;;;;;;;;;;5049134;28;20217;-67
2021/10/27 00:57:55;;;;;;;1.33;1.23;;;;;;;;;;5038250;28;20214;-66
2021/10/27 01:00:26;;;;;;;1.30;1.20;;;;;;;;;;5032592;28;20529;-66
2021/10/27 01:02:56;;;;;;;1.70;1.20;;;;;;;;;;5028992;28;20199;-66
2021/10/27 01:05:26;;;;;;;1.33;1.23;;;;;;;;;;5032293;28;20213;-66
2021/10/27 01:07:58;;;;;;;1.70;1.60;;;;;;;;;;5037180;28;20207;-66
2021/10/27 01:10:29;;;;;;;1.37;1.17;;;;;;;;;;5049297;28;20205;-66
2021/10/27 01:13:02;;;;;;;1.53;1.43;;;;;;;;;;5039563;28;20199;-66
2021/10/27 01:15:39;;;;;;;1.20;1.10;;;;;;;;;;5033794;28;20281;-66
2021/10/27 01:18:21;;;;;;;1.00;1.00;;;;;;;;;;5039056;28;20221;-66
2021/10/27 01:20:53;;;;;;;1.97;1.43;;;;;;;;;;5049080;28;20229;-67
2021/10/27 01:23:26;;;;;;;1.20;1.10;;;;;;;;;;5043515;28;20561;-66
2021/10/27 01:25:56;;;;;;;1.37;1.27;;;;;;;;;;5060959;28;20652;-67
2021/10/27 01:28:30;;;;;;;2.07;1.40;;;;;;;;;;5047561;28;20190;-67
2021/10/27 01:30:58;;;;;;;1.53;1.43;;;;;;;;;;5065139;28;20632;-66
2021/10/27 01:33:28;;;;;;;1.30;1.13;;;;;;;;;;5061924;28;20694;-66
2021/10/27 01:35:57;;;;;;;1.70;1.20;;;;;;;;;;5045231;28;20210;-66
2021/10/27 01:38:28;;;;;;;3.20;1.40;;;;;;;;;;5070034;28;20197;-66
2021/10/27 01:40:57;;;;;;;1.93;1.77;;;;;;;;;;5069162;28;20218;-66
2021/10/27 01:43:28;;;;;;;1.43;1.33;;;;;;;;;;5067819;28;20198;-67
2021/10/27 01:45:57;;;;;;;1.20;1.10;;;;;;;;;;5060934;28;20271;-66
2021/10/27 01:48:28;;;;;;;1.47;1.37;;;;;;;;;;5071231;28;20277;-67
2021/10/27 01:51:02;;;;;;;1.50;1.10;;;;;;;;;;5062859;28;20669;-67
2021/10/27 01:53:37;;;;;;;1.60;1.50;;;;;;;;;;5051123;28;20202;-66
2021/10/27 01:56:09;;;;;;;1.37;1.27;;;;;;;;;;5061100;28;20634;-66
2021/10/27 01:58:40;;;;;;;1.77;1.30;;;;;;;;;;5055605;28;20186;-67
2021/10/27 02:01:13;;;;;;;2.13;1.30;;;;;;;;;;5060633;28;20273;-67
2021/10/27 02:03:44;;;;;;;1.50;1.40;;;;;;;;;;5066440;28;20221;-66
2021/10/27 02:06:19;;;;;;;1.37;1.27;;;;;;;;;;5062935;28;20232;-66
2021/10/27 02:08:51;;;;;;;1.70;1.60;;;;;;;;;;5066102;28;20225;-67
2021/10/27 02:11:21;;;;;;;1.30;1.20;;;;;;;;;;5060761;28;20651;-66
2021/10/27 02:13:54;;;;;;;1.50;1.40;;;;;;;;;;5064568;28;20193;-66
2021/10/27 02:16:26;;;;;;;2.73;1.20;;;;;;;;;;5049219;28;20214;-67
2021/10/27 02:18:57;;;;;;;1.27;1.10;;;;;;;;;;5071153;28;20209;-67
2021/10/27 02:21:27;;;;;;;1.20;1.10;;;;;;;;;;5024144;28;20705;-66
2021/10/27 02:23:57;;;;;;;1.30;1.20;;;;;;;;;;5035983;28;20206;-67
2021/10/27 02:26:35;;;;;;;1.90;1.43;;;;;;;;;;5027608;28;20194;-66
2021/10/27 02:29:07;;;;;;;2.03;1.40;;;;;;;;;;5039926;28;20544;-66
2021/10/27 02:31:37;;;;;;;1.87;1.77;;;;;;;;;;5011762;28;20195;-66
2021/10/27 02:34:09;;;;;;;2.30;1.30;;;;;;;;;;5039867;28;20666;-66
2021/10/27 02:36:42;;;;;;;1.50;1.40;;;;;;;;;;5046914;28;20197;-66
2021/10/27 02:39:12;;;;;;;2.37;1.47;;;;;;;;;;5042917;28;20638;-67
2021/10/27 02:41:45;;;;;;;1.50;1.30;;;;;;;;;;5029412;28;20565;-66
2021/10/27 02:44:17;;;;;;;1.53;1.03;;;;;;;;;;5024820;28;20206;-66
2021/10/27 02:46:51;;;;;;;1.97;1.43;;;;;;;;;;5013729;28;20206;-66
2021/10/27 02:49:20;;;;;;;1.50;1.40;;;;;;;;;;5038671;28;20203;-66
2021/10/27 02:51:50;;;;;;;1.50;1.40;;;;;;;;;;5046741;28;20198;-66
2021/10/27 02:54:22;;;;;;;1.43;1.33;;;;;;;;;;5021322;28;20207;-67
2021/10/27 02:56:54;;;;;;;2.00;1.10;;;;;;;;;;5032143;28;20214;-66
2021/10/27 02:59:25;;;;;;;1.80;1.40;;;;;;;;;;5037104;28;20210;-66
2021/10/27 03:01:54;;;;;;;1.30;1.20;;;;;;;;;;5034568;28;20218;-66
2021/10/27 03:04:27;;;;;;;1.83;1.63;;;;;;;;;;5012302;28;20198;-66
2021/10/27 03:06:58;;;;;;;1.20;1.10;;;;;;;;;;5040102;28;20216;-66
2021/10/27 03:09:27;;;;;;;1.40;1.20;;;;;;;;;;5039598;28;20726;-66
2021/10/27 03:11:56;;;;;;;1.23;1.13;;;;;;;;;;5046119;28;20202;-66
2021/10/27 03:14:29;;;;;;;1.40;1.30;;;;;;;;;;5024126;28;20197;-66
2021/10/27 03:17:01;;;;;;;1.50;1.10;;;;;;;;;;5024551;28;20226;-67
2021/10/27 03:19:32;;;;;;;1.30;1.20;;;;;;;;;;5030670;28;20219;-66
2021/10/27 03:22:01;;;;;;;1.67;1.40;;;;;;;;;;5031525;28;20273;-66
2021/10/27 03:24:32;;;;;;;1.60;1.43;;;;;;;;;;5040064;28;20211;-67
2021/10/27 03:27:04;;;;;;;1.67;1.10;;;;;;;;;;5024505;28;20652;-66
2021/10/27 03:29:36;;;;;;;1.30;1.20;;;;;;;;;;5039997;28;20248;-66
2021/10/27 03:32:06;;;;;;;1.63;1.30;;;;;;;;;;5041018;28;20555;-66
2021/10/27 03:34:44;;;;;;;1.80;1.43;;;;;;;;;;5041942;28;20637;-67
2021/10/27 03:37:15;;;;;;;1.30;1.20;;;;;;;;;;5005088;28;20218;-67
2021/10/27 03:39:46;;;;;;;1.33;1.23;;;;;;;;;;5039357;28;20265;-66
2021/10/27 03:42:18;;;;;;;1.70;1.30;;;;;;;;;;5041176;28;20285;-66
2021/10/27 03:44:50;;;;;;;1.40;1.00;;;;;;;;;;5027673;28;20218;-66
2021/10/27 03:47:20;;;;;;;2.10;1.63;;;;;;;;;;5022111;28;20193;-66
2021/10/27 03:49:52;;;;;;;1.53;1.30;;;;;;;;;;5025570;28;20206;-66
2021/10/27 03:52:24;;;;;;;1.33;1.20;;;;;;;;;;5041827;28;20198;-66
2021/10/27 03:54:58;;;;;;;1.67;1.20;;;;;;;;;;5044604;28;20210;-66
2021/10/27 03:57:29;;;;;;;0.90;0.90;;;;;;;;;;5020757;28;20213;-66
2021/10/27 04:00:00;;;;;;;1.50;1.40;;;;;;;;;;5045100;28;20237;-67
2021/10/27 04:02:32;;;;;;;1.23;1.13;;;;;;;;;;5027425;28;20523;-66
2021/10/27 04:05:05;;;;;;;1.60;1.37;;;;;;;;;;5044877;28;20528;-66
2021/10/27 04:07:40;;;;;;;1.50;1.40;;;;;;;;;;5028961;28;20258;-66
2021/10/27 04:10:13;;;;;;;1.40;1.30;;;;;;;;;;5021460;28;20216;-66
2021/10/27 04:12:46;;;;;;;1.37;1.27;;;;;;;;;;5025272;28;20198;-67
2021/10/27 04:15:19;;;;;;;2.03;1.43;;;;;;;;;;5046224;28;20256;-66
2021/10/27 04:18:02;;;;;;;1.77;1.53;;;;;;;;;;5043891;28;20300;-67
2021/10/27 04:20:32;;;;;;;2.33;1.63;;;;;;;;;;5039858;28;20242;-67
2021/10/27 04:23:06;;;;;;;1.83;1.73;;;;;;;;;;5054063;28;20209;-67
2021/10/27 04:25:36;;;;;;;1.50;1.30;;;;;;;;;;5042208;28;20209;-67
2021/10/27 04:28:09;;;;;;;1.30;1.20;;;;;;;;;;5075995;28;20647;-67
2021/10/27 04:30:38;;;;;;;1.47;1.37;;;;;;;;;;5060957;28;20691;-66
2021/10/27 04:33:18;;;;;;;1.77;1.60;;;;;;;;;;5064245;28;20217;-66
2021/10/27 04:35:54;;;;;;;3.63;1.90;;;;;;;;;;5056483;28;20263;-66
2021/10/27 04:38:37;;;;;;;2.73;1.60;;;;;;;;;;5066186;28;20201;-66
2021/10/27 04:41:10;;;;;;;2.27;1.70;;;;;;;;;;5055613;28;20253;-66
2021/10/27 04:43:42;;;;;;;1.70;1.40;;;;;;;;;;5032702;28;20252;-66
2021/10/27 04:46:14;;;;;;;1.90;1.50;;;;;;;;;;5062794;28;20203;-66
2021/10/27 04:48:46;;;;;;;1.80;1.50;;;;;;;;;;5064267;28;20217;-66
2021/10/27 04:51:18;;;;;;;2.70;1.27;;;;;;;;;;5061221;28;20635;-66
2021/10/27 04:53:49;;;;;;;1.53;1.37;;;;;;;;;;5047380;28;20204;-67
2021/10/27 04:56:20;;;;;;;1.57;1.43;;;;;;;;;;5061243;28;20280;-67
2021/10/27 04:58:50;;;;;;;2.10;1.50;;;;;;;;;;5062147;28;20221;-66
2021/10/27 05:01:21;;;;;;;1.47;1.33;;;;;;;;;;5063331;28;20240;-66
2021/10/27 05:03:50;;;;;;;2.77;1.70;;;;;;;;;;5058508;28;20197;-67
2021/10/27 05:06:24;;;;;;;2.13;1.50;;;;;;;;;;5064041;28;20197;-66
2021/10/27 05:08:54;;;;;;;2.00;1.73;;;;;;;;;;5060206;28;20238;-66
2021/10/27 05:11:25;;;;;;;1.80;1.70;;;;;;;;;;5056613;28;20220;-67
2021/10/27 05:13:55;;;;;;;1.60;1.50;;;;;;;;;;5059348;28;20202;-67
2021/10/27 05:16:25;;;;;;;1.90;1.70;;;;;;;;;;5049064;28;20197;-67
2021/10/27 05:18:57;;;;;;;1.77;1.67;;;;;;;;;;5042884;28;20201;-67
2021/10/27 05:21:28;;;;;;;1.90;1.53;;;;;;;;;;5066297;28;20234;-66
2021/10/27 05:23:57;;;;;;;1.83;1.60;;;;;;;;;;5058423;28;20232;-66
2021/10/27 05:26:29;;;;;;;2.00;1.70;;;;;;;;;;5031827;28;20206;-67
2021/10/27 05:29:02;;;;;;;1.60;1.50;;;;;;;;;;5055852;28;20191;-66
2021/10/27 05:31:32;;;;;;;1.77;1.60;;;;;;;;;;5052731;28;20620;-66
2021/10/27 05:34:02;;;;;;;1.83;1.50;;;;;;;;;;5062835;28;20209;-67
2021/10/27 05:36:35;;;;;;;1.23;1.10;;;;;;;;;;5067232;28;20206;-66
2021/10/27 05:39:05;;;;;;;2.83;1.47;;;;;;;;;;5062465;28;20201;-66
2021/10/27 05:41:34;;;;;;;1.90;1.50;;;;;;;;;;5064552;28;20233;-67
2021/10/27 05:44:04;;;;;;;1.73;1.50;;;;;;;;;;5062487;28;20649;-66
2021/10/27 05:46:33;;;;;;;2.40;1.30;;;;;;;;;;5068614;28;20200;-66
2021/10/27 05:49:15;;;;;;;1.60;1.50;;;;;;;;;;5065472;28;20251;-66
2021/10/27 05:51:53;;;;;;;1.80;1.70;;;;;;;;;;5063162;28;20210;-67
2021/10/27 05:57:14;;;;;;;2.47;1.83;;;;;;;;;;5042564;28;20210;-66
2021/10/27 05:59:48;;;;;;;2.07;1.37;;;;;;;;;;5048136;28;20194;-66
2021/10/27 06:02:21;;;;;;;1.57;1.40;;;;;;;;;;5060239;28;20205;-67
2021/10/27 06:04:53;;;;;;;1.40;1.30;;;;;;;;;;5069475;28;20189;-67
2021/10/27 06:07:25;;;;;;;1.60;1.47;;;;;;;;;;5060175;28;20214;-66
2021/10/27 06:09:55;;;;;;;2.00;1.60;;;;;;;;;;5048137;28;20209;-66
2021/10/27 06:12:27;;;;;;;1.40;1.13;;;;;;;;;;5064757;28;20821;-66
2021/10/27 06:14:58;;;;;;;2.87;1.73;;;;;;;;;;5052243;28;20862;-66
2021/10/27 06:17:45;;;;;;;1.67;1.50;;;;;;;;;;5047825;28;20228;-65
2021/10/27 06:20:37;;;;;;;2.00;1.33;;;;;;;;;;5045432;28;20232;-66
2021/10/27 06:23:33;;;;;;;1.50;1.40;;;;;;;;;;5062325;28;20245;-65
2021/10/27 06:26:07;;;;;;;2.20;1.53;;;;;;;;;;5079796;28;20202;-66
2021/10/27 06:28:58;;;;;;;1.73;1.40;;;;;;;;;;5051662;28;20202;-67
2021/10/27 06:31:51;;;;;;;2.40;1.57;;;;;;;;;;5055646;28;20194;-65
2021/10/27 06:34:33;;;;;;;2.70;1.80;;;;;;;;;;5060941;28;20222;-65
2021/10/27 06:48:26;;;;;;;4.13;1.67;;;;;;;;;;5054659;28;20661;-65
2021/10/27 06:51:18;;;;;;;2.00;1.50;;;;;;;;;;5058698;28;20702;-67
2021/10/27 06:53:49;;;;;;;1.90;1.57;;;;;;;;;;5063802;28;20575;-67
2021/10/27 06:56:22;;;;;;;2.07;1.77;;;;;;;;;;5060301;28;20210;-65
2021/10/27 07:15:35;;;;;;;2.57;1.63;;;;;;;;;;5058724;28;20210;-65
2021/10/27 07:18:08;;;;;;;2.37;1.97;;;;;;;;;;5061352;28;20197;-65
2021/10/27 07:20:40;;;;;;;3.47;1.70;;;;;;;;;;5061687;28;20393;-65
2021/10/27 07:23:11;;;;;;;2.40;1.83;;;;;;;;;;5063540;28;20226;-65
2021/10/27 07:25:41;;;;;;;2.87;1.83;;;;;;;;;;5060684;28;20208;-65
2021/10/27 07:28:12;;;;;;;4.93;1.60;;;;;;;;;;5056147;28;20206;-65
2021/10/27 07:30:44;;;;;;;1.80;1.50;;;;;;;;;;5047915;28;20198;-65
2021/10/27 07:33:16;;;;;;;2.57;2.07;;;;;;;;;;5058956;28;20219;-65
2021/10/27 07:41:06;;;;;;;2.10;1.60;;;;;;;;;;5057287;28;20587;-64
2021/10/27 07:43:46;;;;;;;2.33;1.57;;;;;;;;;;5057550;28;20784;-64
2021/10/27 07:46:19;;;;;;;4.07;2.20;;;;;;;;;;5058978;28;20193;-64
2021/10/27 07:48:59;;;;;;;2.33;1.97;;;;;;;;;;5056868;28;20210;-64
2021/10/27 07:51:28;;;;;;;4.37;2.00;;;;;;;;;;5058511;28;20578;-66
2021/10/27 07:53:58;;;;;;;3.27;1.90;;;;;;;;;;5060025;28;20205;-66
2021/10/27 07:56:30;;;;;;;5.00;2.30;;;;;;;;;;5065441;28;20214;-65
2021/10/27 07:59:02;;;;;;;4.03;2.20;;;;;;;;;;5061034;28;20194;-65
2021/10/27 08:01:35;;;;;;;3.07;1.90;;;;;;;;;;5045635;28;20228;-66
2021/10/27 08:04:11;;;;;;;1.93;1.53;;;;;;;;;;5054176;28;20702;-67
2021/10/27 08:06:45;;;;;;;2.87;2.10;;;;;;;;;;5062638;28;20189;-67
2021/10/27 08:09:20;;;;;;;3.10;1.90;;;;;;;;;;5051001;28;20238;-66
2021/10/27 08:11:49;;;;;;;2.30;1.80;;;;;;;;;;5038103;28;20198;-64
2021/10/27 08:14:20;;;;;;;2.30;1.90;;;;;;;;;;5053035;28;20205;-65
2021/10/27 08:17:00;;;;;;;4.03;1.93;;;;;;;;;;5054230;28;20214;-65
2021/10/27 08:19:31;;;;;;;2.30;1.57;;;;;;;;;;5031114;28;20201;-65
2021/10/27 08:22:05;;;;;;;3.07;1.90;;;;;;;;;;5062950;28;20229;-65
2021/10/27 08:24:36;;;;;;;2.43;1.60;;;;;;;;;;5035263;28;20178;-65
2021/10/27 08:27:33;;;;;;;3.83;1.67;;;;;;;;;;5059890;28;20668;-67
2021/10/27 08:30:06;;;;;;;3.00;2.10;;;;;;;;;;5064223;28;20655;-66
2021/10/27 08:32:52;;;;;;;4.23;1.90;;;;;;;;;;5068098;28;20213;-67
2021/10/27 08:35:29;;;;;;;2.77;1.80;;;;;;;;;;5055631;28;20668;-65
2021/10/27 08:38:09;;;;;;;2.00;1.80;;;;;;;;;;5044153;28;20199;-65
2021/10/27 08:40:42;;;;;;;3.70;1.60;;;;;;;;;;5055045;28;20201;-66
2021/10/27 08:43:13;;;;;;;2.50;1.40;;;;;;;;;;5057073;28;20198;-66
2021/10/27 08:45:45;;;;;;;3.17;1.90;;;;;;;;;;5041116;28;20205;-67
2021/10/27 08:48:19;;;;;;;4.20;2.17;;;;;;;;;;5043551;28;20206;-68
2021/10/27 08:50:58;;;;;;;3.20;1.70;;;;;;;;;;5054162;28;20223;-65
2021/10/27 08:53:30;;;;;;;2.47;1.70;;;;;;;;;;5037597;28;20202;-65
2021/10/27 08:56:05;;;;;;;2.20;1.87;;;;;;;;;;5053020;28;20246;-65
2021/10/27 08:58:41;;;;;;;2.30;1.60;;;;;;;;;;5058495;28;20217;-65
2021/10/27 09:04:42;;;;;;;2.27;1.50;;;;;;;;;;5004964;28;20314;-67
2021/10/27 09:07:30;;;;;;;3.60;2.30;;;;;;;;;;4993214;28;20207;-65
2021/10/27 09:36:22;;;;;;;2.33;2.00;;;;;;;;;;5054999;28;20224;-64
2021/10/27 10:04:17;;;;;;;3.20;2.00;;;;;;;;;;5057167;28;20221;-67
2021/10/27 10:07:02;;;;;;;2.47;1.87;;;;;;;;;;5065706;28;20651;-66
2021/10/27 10:09:36;;;;;;;2.57;1.80;;;;;;;;;;5057145;28;20214;-66
2021/10/27 10:12:06;;;;;;;2.70;1.83;;;;;;;;;;5074540;28;20212;-67
2021/10/27 10:14:39;;;;;;;4.27;2.00;;;;;;;;;;5067601;28;20284;-67
2021/10/27 10:17:11;;;;;;;3.17;2.00;;;;;;;;;;5064726;28;20201;-65
2021/10/27 10:19:45;;;;;;;2.43;1.90;;;;;;;;;;5050041;28;20198;-64
2021/10/27 10:22:37;;;;;;;3.23;1.90;;;;;;;;;;5063753;28;20776;-64
2021/10/27 10:25:21;;;;;;;2.53;1.70;;;;;;;;;;5051164;28;20599;-64
2021/10/27 10:28:23;;;;;;;2.33;1.60;;;;;;;;;;5057746;28;20202;-65
2021/10/27 10:31:04;;;;;;;2.53;2.33;;;;;;;;;;5060632;28;20292;-65
2021/10/27 10:33:42;;;;;;;2.27;1.70;;;;;;;;;;5044645;28;20658;-65
2021/10/27 10:36:40;;;;;;;3.70;1.93;;;;;;;;;;5057101;28;20221;-66
2021/10/27 10:39:46;;;;;;;2.60;1.70;;;;;;;;;;5065318;28;20500;-66
2021/10/27 10:43:09;;;;;;;5.13;2.27;;;;;;;;;;5062703;28;20590;-66
2021/10/27 11:03:58;;;;;;;4.33;2.17;;;;;;;;;;5061918;28;20218;-66
2021/10/27 11:39:44;;;;;;;3.93;2.20;;;;;;;;;;5061742;28;20544;-66
2021/10/27 11:48:28;;;;;;;4.00;2.30;;;;;;;;;;5050152;28;20198;-66
2021/10/27 11:50:58;;;;;;;5.20;2.03;;;;;;;;;;5059500;28;20715;-66
2021/10/27 11:53:29;;;;;;;3.33;1.73;;;;;;;;;;5048282;28;20202;-66
2021/10/27 11:56:20;;;;;;;4.17;1.87;;;;;;;;;;5060070;28;20213;-66
2021/10/27 11:58:55;;;;;;;3.93;1.80;;;;;;;;;;5048453;28;20195;-66
2021/10/27 12:01:32;;;;;;;2.97;1.90;;;;;;;;;;5068061;28;20194;-66
2021/10/27 12:04:08;;;;;;;2.73;1.97;;;;;;;;;;5061215;28;20663;-66
2021/10/27 12:06:53;;;;;;;2.93;1.80;;;;;;;;;;5050683;28;20190;-66
2021/10/27 12:16:02;;;;;;;3.47;1.83;;;;;;;;;;5058686;28;20217;-66
2021/10/27 12:18:33;;;;;;;2.50;1.70;;;;;;;;;;5063710;28;20193;-66
2021/10/27 12:21:04;;;;;;;3.73;2.10;;;;;;;;;;5051831;28;20248;-64
2021/10/27 12:23:33;;;;;;;3.60;2.37;;;;;;;;;;5041090;28;20211;-64
2021/10/27 12:26:15;;;;;;;3.57;2.00;;;;;;;;;;5048378;28;20687;-65
2021/10/27 12:28:51;;;;;;;3.10;1.97;;;;;;;;;;5044284;28;20213;-65
2021/10/27 12:31:21;;;;;;;3.83;2.10;;;;;;;;;;5057540;28;20212;-65
2021/10/27 12:33:52;;;;;;;2.87;1.83;;;;;;;;;;5038724;28;20211;-65
2021/10/27 12:36:34;;;;;;;2.27;1.67;;;;;;;;;;5043353;28;20186;-67
2021/10/27 12:39:32;;;;;;;2.63;1.87;;;;;;;;;;5034030;28;20604;-66
2021/10/27 12:42:15;;;;;;;3.40;1.80;;;;;;;;;;5062778;28;20218;-66
2021/10/27 12:44:54;;;;;;;3.00;1.90;;;;;;;;;;5047635;28;20544;-67
2021/10/27 12:47:27;;;;;;;2.10;1.60;;;;;;;;;;5035765;28;20210;-65
2021/10/27 12:50:03;;;;;;;2.03;1.80;;;;;;;;;;5050917;28;20230;-65
2021/10/27 12:52:45;;;;;;;1.97;1.50;;;;;;;;;;5046228;28;20207;-64
2021/10/27 12:55:22;;;;;;;4.07;1.80;;;;;;;;;;5038027;28;20200;-66
2021/10/27 12:58:05;;;;;;;3.13;1.80;;;;;;;;;;5045020;28;20376;-66
2021/10/27 13:12:04;;;;;;;2.03;1.63;;;;;;;;;;5040632;28;20206;-66
2021/10/27 13:31:57;;;;;;;2.73;1.60;;;;;;;;;;5055631;28;20298;-67
2021/10/27 13:34:28;;;;;;;2.93;1.80;;;;;;;;;;5054410;28;20224;-66
2021/10/27 13:37:00;;;;;;;2.10;1.50;;;;;;;;;;5058512;28;20297;-66
2021/10/27 13:39:44;;;;;;;3.50;1.93;;;;;;;;;;5053867;28;20196;-66
2021/10/27 13:42:23;;;;;;;2.40;1.60;;;;;;;;;;5042958;28;20260;-64
2021/10/27 13:45:09;;;;;;;2.63;1.50;;;;;;;;;;5063496;28;20214;-64
2021/10/27 14:07:29;;;;;;;2.20;1.40;;;;;;;;;;5065641;28;20216;-67
2021/10/27 14:10:44;;;;;;;3.47;1.53;;;;;;;;;;5037710;28;20218;-66
2021/10/27 14:13:23;;;;;;;2.07;1.40;;;;;;;;;;5053138;28;20608;-66
2021/10/27 15:21:26;;;;;;;1.97;1.53;;;;;;;;;;5064584;28;20205;-65
2021/10/27 15:32:37;;;;;;;1.90;1.40;;;;;;;;;;5055128;28;20228;-65
2021/10/27 15:51:56;;;;;;;1.73;1.33;;;;;;;;;;5063843;28;20187;-66
2021/10/27 15:54:30;;;;;;;1.43;1.23;;;;;;;;;;5027210;28;20202;-66
2021/10/27 15:57:01;;;;;;;3.30;1.50;;;;;;;;;;5061483;28;20242;-66
2021/10/27 15:59:33;;;;;;;1.87;1.40;;;;;;;;;;5042973;28;20204;-66
2021/10/27 16:02:04;;;;;;;1.70;1.40;;;;;;;;;;5062707;28;20271;-66
2021/10/27 16:04:37;;;;;;;2.33;1.60;;;;;;;;;;5045877;28;20240;-66
2021/10/27 16:07:17;;;;;;;2.57;1.60;;;;;;;;;;5064948;28;20209;-66
2021/10/27 16:09:50;;;;;;;2.67;1.60;;;;;;;;;;5046516;28;20902;-66
2021/10/27 16:12:28;;;;;;;2.17;1.90;;;;;;;;;;5043167;28;20268;-64
2021/10/27 16:15:13;;;;;;;2.47;1.80;;;;;;;;;;5033190;28;20187;-64
2021/10/27 16:17:43;;;;;;;2.57;1.53;;;;;;;;;;5053414;28;20205;-64
2021/10/27 16:20:14;;;;;;;1.37;1.27;;;;;;;;;;5064664;28;20719;-65
2021/10/27 16:22:47;;;;;;;1.47;1.37;;;;;;;;;;5065613;28;20265;-64
2021/10/27 16:28:13;;;;;;;1.80;1.50;;;;;;;;;;5060015;28;20766;-64
2021/10/27 16:31:08;;;;;;;2.53;1.80;;;;;;;;;;5052529;28;20200;-65
2021/10/27 16:33:44;;;;;;;2.50;1.40;;;;;;;;;;5048298;28;20218;-64
2021/10/27 16:36:22;;;;;;;1.93;1.50;;;;;;;;;;5055573;28;20216;-65
2021/10/27 16:38:58;;;;;;;1.73;1.43;;;;;;;;;;5049713;28;20197;-65
2021/10/27 16:41:27;;;;;;;3.60;1.70;;;;;;;;;;5065366;28;20192;-64
2021/10/27 16:43:59;;;;;;;2.57;1.67;;;;;;;;;;5054951;28;20248;-64
2021/10/27 16:46:29;;;;;;;2.70;1.50;;;;;;;;;;5047626;28;20198;-65
2021/10/27 16:49:01;;;;;;;1.60;1.47;;;;;;;;;;5053676;28;20217;-65
2021/10/27 16:51:32;;;;;;;2.00;1.50;;;;;;;;;;5061262;28;20287;-64
2021/10/27 16:54:03;;;;;;;2.10;1.50;;;;;;;;;;5057937;28;20277;-65
2021/10/27 16:56:34;;;;;;;1.90;1.40;;;;;;;;;;5055729;28;20239;-65
2021/10/27 16:59:07;;;;;;;2.07;1.60;;;;;;;;;;5036468;28;20200;-65
2021/10/27 17:01:39;;;;;;;1.53;1.40;;;;;;;;;;5028842;28;20271;-65
2021/10/27 17:04:07;;;;;;;2.10;1.77;;;;;;;;;;5045601;28;20236;-64
2021/10/27 17:06:40;;;;;;;1.70;1.60;;;;;;;;;;5062797;28;20643;-65
2021/10/27 17:09:10;;;;;;;1.80;1.70;;;;;;;;;;5056942;28;20198;-64
2021/10/27 17:11:42;;;;;;;1.50;1.20;;;;;;;;;;5042972;28;20206;-65
2021/10/27 17:14:12;;;;;;;1.63;1.40;;;;;;;;;;5058849;28;20212;-65
2021/10/27 17:16:42;;;;;;;3.00;1.77;;;;;;;;;;5060126;28;20205;-64
2021/10/27 17:19:13;;;;;;;3.00;1.60;;;;;;;;;;5062008;28;20212;-65
2021/10/27 17:21:44;;;;;;;2.70;1.60;;;;;;;;;;5047103;28;20237;-65
2021/10/27 17:24:17;;;;;;;2.00;1.70;;;;;;;;;;5022906;28;20222;-65
2021/10/27 17:26:53;;;;;;;1.57;1.47;;;;;;;;;;5038466;28;20202;-65
2021/10/27 17:29:26;;;;;;;2.00;1.73;;;;;;;;;;5050312;28;20194;-65
2021/10/27 17:32:18;;;;;;;1.87;1.43;;;;;;;;;;5024511;28;20364;-65
2021/10/27 17:34:59;;;;;;;1.67;1.50;;;;;;;;;;5035414;28;20408;-64
2021/10/27 17:37:32;;;;;;;2.03;1.80;;;;;;;;;;5042804;28;20237;-64
2021/10/27 17:40:52;;;;;;;1.70;1.37;;;;;;;;;;5045082;28;20203;-64
2021/10/27 17:43:09;;;;;;;2.33;1.70;;;;;;;;;;5020647;28;20261;-64
2021/10/27 17:45:45;;;;;;;1.87;1.70;;;;;;;;;;5037119;28;20203;-65
2021/10/27 17:48:30;;;;;;;3.00;1.87;;;;;;;;;;5018127;28;20623;-65
2021/10/27 17:51:18;;;;;;;2.10;1.90;;;;;;;;;;5032169;28;20194;-65
2021/10/27 17:59:49;;;;;;;2.53;1.70;;;;;;;;;;5020605;28;20215;-65
2021/10/27 18:02:20;;;;;;;2.20;1.70;;;;;;;;;;5042621;28;20230;-65
2021/10/27 18:05:01;;;;;;;3.03;1.80;;;;;;;;;;5055408;28;20232;-65
2021/10/27 18:07:37;;;;;;;1.80;1.70;;;;;;;;;;5040779;28;20194;-64
2021/10/27 18:10:24;;;;;;;2.10;1.67;;;;;;;;;;5026176;28;20285;-65
2021/10/27 18:12:57;;;;;;;1.80;1.53;;;;;;;;;;5043411;28;20197;-64
2021/10/27 18:15:35;;;;;;;2.57;2.00;;;;;;;;;;5047627;28;20577;-65
2021/10/27 18:18:19;;;;;;;2.20;1.70;;;;;;;;;;5029411;28;20696;-65
2021/10/27 18:20:52;;;;;;;5.23;1.80;;;;;;;;;;5024025;28;20202;-65
2021/10/27 18:37:27;;;;;;;2.70;1.70;;;;;;;;;;5039654;28;20202;-65
2021/10/27 18:40:08;;;;;;;3.27;1.97;;;;;;;;;;5046623;28;20202;-65
2021/10/27 18:42:43;;;;;;;2.33;1.53;;;;;;;;;;5047100;28;20199;-65
2021/10/27 18:45:23;;;;;;;2.87;1.90;;;;;;;;;;5045962;28;20332;-65
2021/10/27 18:48:14;;;;;;;1.90;1.70;;;;;;;;;;5042444;28;20242;-65
2021/10/27 18:50:58;;;;;;;2.40;1.90;;;;;;;;;;5043374;28;20202;-65
2021/10/27 18:59:18;;;;;;;2.67;1.80;;;;;;;;;;5046385;28;20206;-65
2021/10/27 19:01:52;;;;;;;3.07;1.90;;;;;;;;;;5036118;28;20202;-65
2021/10/27 19:15:45;;;;;;;1.73;1.63;;;;;;;;;;5039574;28;20208;-65
2021/10/27 19:18:21;;;;;;;1.93;1.70;;;;;;;;;;5050318;28;20222;-65
2021/10/27 19:21:02;;;;;;;2.10;1.90;;;;;;;;;;5039913;28;20330;-64
2021/10/27 19:23:30;;;;;;;4.27;2.33;;;;;;;;;;5055046;28;20265;-65
2021/10/27 19:26:20;;;;;;;2.13;1.77;;;;;;;;;;5063719;28;20267;-64
2021/10/27 19:29:18;;;;;;;2.00;1.80;;;;;;;;;;5068817;28;20289;-65
2021/10/27 19:32:34;;;;;;;2.43;2.03;;;;;;;;;;5059310;28;20293;-65
2021/10/27 20:06:36;;;;;;;2.07;1.80;;;;;;;;;;5061980;28;20228;-65
2021/10/27 20:24:02;;;;;;;2.07;1.60;;;;;;;;;;5048830;28;20229;-64
2021/10/27 20:29:28;;;;;;;2.23;1.90;;;;;;;;;;5062536;28;20201;-65
2021/10/27 20:54:18;;;;;;;6.70;2.40;;;;;;;;;;5064159;28;20218;-65
2021/10/27 20:57:00;;;;;;;4.93;1.90;;;;;;;;;;5051446;28;20617;-65
2021/10/27 21:00:16;;;;;;;4.17;2.20;;;;;;;;;;5057434;28;20186;-65
2021/10/27 21:02:47;;;;;;;3.87;2.47;;;;;;;;;;5052195;28;20218;-64
2021/10/27 21:13:58;;;;;;;5.90;2.10;;;;;;;;;;5066274;28;20198;-64
2021/10/27 21:16:29;;;;;;;3.27;1.93;;;;;;;;;;5058623;28;20199;-64
2021/10/27 21:19:06;;;;;;;2.70;2.03;;;;;;;;;;5055629;28;21112;-64
2021/10/27 21:21:48;;;;;;;2.90;2.43;;;;;;;;;;5056993;28;20237;-64
2021/10/27 21:24:22;;;;;;;3.57;1.73;;;;;;;;;;5064036;28;20312;-64
2021/10/27 21:26:53;;;;;;;2.83;2.13;;;;;;;;;;5030552;28;20187;-64
2021/10/27 21:29:30;;;;;;;1.97;1.70;;;;;;;;;;5063227;28;20706;-64
2021/10/27 21:43:33;;;;;;;3.97;2.47;;;;;;;;;;5057133;28;20216;-64
2021/10/27 21:46:17;;;;;;;3.10;2.40;;;;;;;;;;5063885;28;20420;-64
2021/10/27 21:48:45;;;;;;;4.03;2.60;;;;;;;;;;5068823;28;20640;-64
2021/10/27 21:51:14;;;;;;;4.60;2.37;;;;;;;;;;5063251;28;20198;-64
2021/10/27 21:53:45;;;;;;;3.87;2.50;;;;;;;;;;5048468;28;20275;-64
2021/10/27 21:56:21;;;;;;;4.63;2.30;;;;;;;;;;5054635;28;20222;-64
2021/10/27 21:58:57;;;;;;;5.37;2.67;;;;;;;;;;5058468;28;20324;-64
2021/10/27 22:01:29;;;;;;;2.97;2.20;;;;;;;;;;5048269;28;20681;-64
2021/10/27 22:04:01;;;;;;;6.57;2.50;;;;;;;;;;5065490;28;20197;-64
2021/10/27 22:06:36;;;;;;;3.13;1.90;;;;;;;;;;5056698;28;20650;-64
2021/10/27 22:09:07;;;;;;;5.27;2.50;;;;;;;;;;5055813;28;20209;-64
2021/10/27 22:11:41;;;;;;;3.03;2.30;;;;;;;;;;5038805;28;20214;-64
2021/10/27 22:14:12;;;;;;;3.10;2.10;;;;;;;;;;5043514;28;20214;-64
2021/10/27 22:16:48;;;;;;;3.53;2.30;;;;;;;;;;5073905;28;20895;-64
2021/10/27 22:19:20;;;;;;;4.23;2.47;;;;;;;;;;5044769;28;20802;-64
2021/10/27 22:21:52;;;;;;;3.50;2.50;;;;;;;;;;5053602;28;20233;-64
2021/10/27 22:24:26;;;;;;;3.30;2.77;;;;;;;;;;5058145;28;20217;-64
2021/10/27 22:26:56;;;;;;;2.87;2.57;;;;;;;;;;5067944;28;20200;-63
2021/10/27 22:29:26;;;;;;;4.03;2.83;;;;;;;;;;5057101;28;20593;-64
2021/10/27 22:31:58;;;;;;;2.83;2.50;;;;;;;;;;5063615;28;20279;-66
2021/10/27 22:34:29;;;;;;;3.43;2.57;;;;;;;;;;5044321;28;20226;-65
2021/10/27 22:37:00;;;;;;;3.30;2.70;;;;;;;;;;5065284;28;20204;-64